Terminal Aerodrome Forecast
Issued by NWS Billings, MT

Home | Current Version | Previous Version | Text Only | Print | Product List | Glossary Off
Versions: 1 2 3 4 5 6 7 8 9 10 11 12 13 14 15 16 17 18 19 20 21 22 23 24 25 26

593
FTUS45 KBYZ 021432 AAA
TAFMLS
TAF AMD
KMLS 021432Z 0215/0312 VRB05KT P6SM FEW015 SCT030 BKN050
      TEMPO 0215/0217 SCT010 BKN030
     FM021700 25010KT P6SM FEW015 SCT050
     FM030000 18007KT P6SM SCT150=

USA.gov is the U.S. government's official web portal to all federal, state and local government web resources and services.